createdAt,value
2019-04-30T00:01:48.570Z,95.77
2019-04-30T00:04:15.900Z,95.76
2019-04-30T00:06:45.384Z,95.58
2019-04-30T00:09:18.917Z,95.90
2019-04-30T00:11:46.099Z,95.92
2019-04-30T00:14:15.244Z,95.93
2019-04-30T00:16:45.128Z,95.76
2019-04-30T00:19:15.756Z,95.62
2019-04-30T00:21:50.097Z,95.84
2019-04-30T00:24:15.748Z,96.12
2019-04-30T00:26:44.993Z,96.33
2019-04-30T00:29:19.158Z,96.47
2019-04-30T00:31:44.672Z,96.18
2019-04-30T00:34:15.172Z,96.06
2019-04-30T00:36:43.542Z,96.06
2019-04-30T00:39:13.215Z,96.26
2019-04-30T00:41:45.940Z,96.31
2019-04-30T00:44:11.570Z,96.30
2019-04-30T00:46:40.054Z,96.41
2019-04-30T00:49:11.187Z,96.43
2019-04-30T00:51:38.164Z,96.38
2019-04-30T00:54:06.360Z,96.26
2019-04-30T00:56:35.546Z,95.87
2019-04-30T00:59:08.236Z,96.18
2019-04-30T01:01:39.056Z,96.24
2019-04-30T01:04:09.935Z,96.25
2019-04-30T01:06:38.110Z,96.27
2019-04-30T01:09:08.629Z,96.00
2019-04-30T01:11:39.783Z,96.04
2019-04-30T01:14:06.666Z,96.14
2019-04-30T01:16:34.852Z,96.29
2019-04-30T01:19:05.661Z,96.32
2019-04-30T01:21:32.946Z,96.27
2019-04-30T01:24:01.142Z,96.22
2019-04-30T01:26:31.027Z,96.15
2019-04-30T01:29:02.068Z,96.10
2019-04-30T01:31:36.938Z,95.95
2019-04-30T01:34:00.261Z,96.01
2019-04-30T01:36:29.374Z,96.30
2019-04-30T01:38:59.294Z,96.31
2019-04-30T01:41:31.315Z,96.21
2019-04-30T01:43:58.485Z,96.07
2019-04-30T01:46:26.799Z,95.88
2019-04-30T01:48:55.001Z,95.95
2019-04-30T01:51:23.522Z,95.96
2019-04-30T01:53:51.749Z,96.22
2019-04-30T01:56:21.913Z,96.32
2019-04-30T01:58:51.738Z,96.35
2019-04-30T02:01:24.098Z,96.18
2019-04-30T02:03:52.581Z,96.03
2019-04-30T02:06:20.778Z,95.91
2019-04-30T02:08:49.369Z,95.87
2019-04-30T02:11:18.978Z,95.69
2019-04-30T02:13:49.194Z,95.85
2019-04-30T02:16:18.755Z,95.83
2019-04-30T02:18:49.459Z,95.56
2019-04-30T02:21:19.524Z,95.63
2019-04-30T02:23:49.303Z,95.56
2019-04-30T02:26:18.774Z,95.63
2019-04-30T02:28:49.386Z,95.96
2019-04-30T02:31:22.327Z,95.96
2019-04-30T02:33:50.293Z,95.84
2019-04-30T02:36:32.311Z,95.83
2019-04-30T02:39:02.632Z,95.87
2019-04-30T02:41:31.041Z,95.80
2019-04-30T02:43:59.810Z,95.79
2019-04-30T02:46:31.997Z,95.83
2019-04-30T02:48:59.799Z,95.70
2019-04-30T02:51:29.954Z,95.87
2019-04-30T02:54:12.930Z,96.13
2019-04-30T02:56:42.767Z,96.28
2019-04-30T02:59:11.208Z,96.26
2019-04-30T03:01:40.248Z,96.11
2019-04-30T03:04:09.860Z,95.81
2019-04-30T03:06:40.188Z,95.94
2019-04-30T03:09:10.344Z,96.14
2019-04-30T03:11:40.586Z,96.28
2019-04-30T03:14:10.245Z,96.52
2019-04-30T03:16:43.470Z,96.51
2019-04-30T03:19:25.280Z,96.38
2019-04-30T03:22:00.170Z,96.21
2019-04-30T03:24:29.534Z,96.00
2019-04-30T03:26:59.457Z,96.10
2019-04-30T03:29:30.257Z,96.17
2019-04-30T03:32:02.066Z,96.07
2019-04-30T03:34:31.829Z,95.67
2019-04-30T03:37:01.685Z,95.76
2019-04-30T03:39:29.733Z,95.83
2019-04-30T03:41:59.676Z,96.35
2019-04-30T03:44:31.563Z,96.32
2019-04-30T03:46:59.310Z,96.20
2019-04-30T03:49:29.840Z,96.12
2019-04-30T03:51:59.806Z,96.09
2019-04-30T03:54:29.251Z,96.26
2019-04-30T03:57:00.625Z,95.83
2019-04-30T03:59:30.106Z,95.81
2019-04-30T04:02:06.233Z,95.87
2019-04-30T04:04:39.666Z,95.94
2019-04-30T04:07:10.209Z,95.90
2019-04-30T04:09:59.824Z,96.10
2019-04-30T04:12:30.253Z,94.28
2019-04-30T04:15:03.266Z,95.52
2019-04-30T04:17:31.293Z,95.94
2019-04-30T04:19:59.866Z,95.77
2019-04-30T04:22:30.602Z,95.71
2019-04-30T04:25:00.054Z,95.38
2019-04-30T04:27:30.077Z,94.62
2019-04-30T04:30:01.095Z,95.13
2019-04-30T04:32:30.885Z,95.25
2019-04-30T04:35:00.170Z,95.46
2019-04-30T04:37:30.105Z,95.58
2019-04-30T04:39:59.561Z,95.54
2019-04-30T04:42:30.003Z,95.33
2019-04-30T04:44:59.486Z,95.60
2019-04-30T04:47:30.871Z,95.50
2019-04-30T04:50:00.653Z,95.67
2019-04-30T04:52:31.616Z,95.64
2019-04-30T04:55:00.451Z,95.39
2019-04-30T04:57:30.508Z,94.87
2019-04-30T05:00:03.489Z,95.38
2019-04-30T05:02:46.328Z,95.42
2019-04-30T05:05:14.508Z,94.45
2019-04-30T05:07:42.746Z,95.05
2019-04-30T05:10:11.889Z,95.38
2019-04-30T05:12:40.412Z,95.20
2019-04-30T05:15:09.546Z,95.13
2019-04-30T05:17:39.765Z,95.19
2019-04-30T05:20:09.994Z,95.04
2019-04-30T05:22:39.021Z,95.25
2019-04-30T05:25:08.802Z,94.86
2019-04-30T05:27:39.077Z,94.62
2019-04-30T05:30:09.729Z,94.61
2019-04-30T05:32:39.086Z,95.33
2019-04-30T05:35:09.562Z,95.03
2019-04-30T05:37:38.470Z,94.62
2019-04-30T05:40:09.117Z,95.23
2019-04-30T05:42:38.518Z,95.05
2019-04-30T05:45:09.370Z,95.52
2019-04-30T05:47:38.874Z,94.98
2019-04-30T05:50:08.977Z,95.15
2019-04-30T05:52:39.501Z,94.96
2019-04-30T05:55:08.566Z,95.43
2019-04-30T05:57:36.983Z,95.22
2019-04-30T06:00:09.308Z,95.16
2019-04-30T06:02:37.145Z,95.03
2019-04-30T06:05:06.276Z,95.11
2019-04-30T06:07:34.760Z,95.20
2019-04-30T06:10:04.885Z,95.04
2019-04-30T06:12:52.821Z,95.42
2019-04-30T06:15:29.108Z,95.63
2019-04-30T06:18:01.801Z,95.78
2019-04-30T06:20:28.783Z,95.78
2019-04-30T06:22:57.134Z,95.78
2019-04-30T06:25:32.393Z,95.39
2019-04-30T06:27:55.311Z,95.23
2019-04-30T06:30:23.946Z,95.19
2019-04-30T06:32:52.125Z,95.40
2019-04-30T06:35:20.621Z,95.63
2019-04-30T06:37:49.106Z,95.85
2019-04-30T06:40:19.631Z,95.71
2019-04-30T06:42:49.338Z,95.61
2019-04-30T06:45:19.173Z,95.34
2019-04-30T06:47:48.937Z,95.49
2019-04-30T06:50:19.211Z,95.38
2019-04-30T06:52:56.215Z,95.41
2019-04-30T06:55:19.109Z,95.30
2019-04-30T06:57:47.040Z,95.39
2019-04-30T07:00:15.239Z,95.47
2019-04-30T07:02:43.423Z,95.24
2019-04-30T07:05:12.035Z,95.23
2019-04-30T07:07:41.897Z,95.01
2019-04-30T07:10:17.008Z,95.21
2019-04-30T07:12:49.162Z,95.47
2019-04-30T07:15:19.529Z,95.41
2019-04-30T07:17:49.155Z,95.74
2019-04-30T07:20:19.147Z,95.77
2019-04-30T07:22:52.543Z,95.63
2019-04-30T07:25:19.519Z,95.35
2019-04-30T07:27:50.565Z,95.04
2019-04-30T07:30:19.224Z,95.01
2019-04-30T07:32:48.769Z,95.01
2019-04-30T07:35:19.442Z,94.85
2019-04-30T07:37:49.522Z,94.93
2019-04-30T07:40:19.047Z,94.81
2019-04-30T07:42:49.309Z,95.01
2019-04-30T07:45:19.426Z,94.89
2019-04-30T07:47:49.507Z,94.54
2019-04-30T07:50:20.797Z,94.34
2019-04-30T07:53:01.979Z,93.94
2019-04-30T07:55:19.583Z,94.46
2019-04-30T07:57:50.557Z,94.37
2019-04-30T08:00:19.413Z,94.25
2019-04-30T08:02:50.453Z,94.19
2019-04-30T08:05:20.427Z,94.44
2019-04-30T08:07:49.102Z,93.95
2019-04-30T08:10:18.765Z,94.17
2019-04-30T08:12:49.990Z,94.49
2019-04-30T08:15:19.193Z,94.38
2019-04-30T08:18:01.661Z,94.66
2019-04-30T08:20:19.491Z,94.80
2019-04-30T08:22:49.396Z,94.81
2019-04-30T08:25:19.933Z,94.90
2019-04-30T08:27:49.268Z,94.83
2019-04-30T08:30:26.045Z,94.28
2019-04-30T08:32:49.983Z,94.43
2019-04-30T08:35:19.705Z,94.45
2019-04-30T08:37:49.659Z,93.61
2019-04-30T08:40:20.959Z,93.48
2019-04-30T08:42:49.690Z,93.82
2019-04-30T08:45:19.698Z,93.48
2019-04-30T08:47:49.354Z,92.36
2019-04-30T08:50:19.595Z,91.37
2019-04-30T08:52:49.752Z,92.17
2019-04-30T08:55:19.747Z,91.59
2019-04-30T08:57:49.859Z,92.01
2019-04-30T09:00:19.539Z,92.21
2019-04-30T09:02:49.187Z,90.97
2019-04-30T09:05:19.439Z,91.82
2019-04-30T09:07:48.676Z,91.22
2019-04-30T09:10:19.254Z,90.94
2019-04-30T09:12:49.616Z,88.94
2019-04-30T09:15:18.836Z,91.89
2019-04-30T09:18:00.308Z,90.55
2019-04-30T09:20:19.303Z,91.04
2019-04-30T09:22:47.325Z,90.35
2019-04-30T09:25:15.961Z,89.73
2019-04-30T09:27:44.134Z,89.51
2019-04-30T09:30:12.311Z,87.83
2019-04-30T09:32:40.494Z,88.52
2019-04-30T09:35:09.562Z,89.44
2019-04-30T09:37:39.414Z,88.67
2019-04-30T09:40:16.131Z,88.18
2019-04-30T09:42:39.078Z,87.59
2019-04-30T09:45:08.806Z,87.43
2019-04-30T09:47:37.047Z,85.83
2019-04-30T09:50:06.248Z,86.02
2019-04-30T09:52:36.112Z,84.54
2019-04-30T09:55:06.188Z,83.70
2019-04-30T09:57:34.683Z,83.27
2019-04-30T10:00:03.979Z,81.88
2019-04-30T10:02:32.438Z,83.03
2019-04-30T10:05:01.026Z,83.35
2019-04-30T10:07:29.811Z,84.48
2019-04-30T10:09:59.090Z,84.77
2019-04-30T10:12:29.414Z,84.74
2019-04-30T10:14:59.255Z,85.34
2019-04-30T10:17:32.235Z,85.17
2019-04-30T10:20:00.411Z,85.36
2019-04-30T10:22:28.597Z,85.17
2019-04-30T10:24:56.780Z,84.83
2019-04-30T10:27:25.684Z,84.07
2019-04-30T10:29:54.131Z,85.33
2019-04-30T10:32:22.313Z,86.04
2019-04-30T10:34:50.793Z,85.30
2019-04-30T10:37:19.275Z,85.54
2019-04-30T10:39:48.994Z,86.19
2019-04-30T10:42:17.430Z,87.80
2019-04-30T10:44:45.610Z,87.25
2019-04-30T10:47:14.426Z,87.42
2019-04-30T10:49:42.616Z,86.86
2019-04-30T10:52:10.794Z,87.21
2019-04-30T10:54:39.109Z,86.67
2019-04-30T10:57:08.690Z,86.50
2019-04-30T10:59:37.167Z,86.22
2019-04-30T11:02:05.431Z,86.40
2019-04-30T11:04:33.902Z,85.90
2019-04-30T11:07:02.085Z,86.28
2019-04-30T11:09:31.172Z,82.81
2019-04-30T11:12:02.697Z,85.82
2019-04-30T11:14:30.118Z,86.35
2019-04-30T11:16:59.892Z,85.39
2019-04-30T14:16:47.228Z,76.12
2019-04-30T14:22:57.581Z,76.72
2019-04-30T14:28:55.015Z,74.63
2019-04-30T14:31:23.202Z,72.68
2019-04-30T14:33:51.379Z,70.92
2019-04-30T14:36:19.571Z,70.76
2019-04-30T14:38:48.856Z,71.20
2019-04-30T14:41:17.808Z,70.71
2019-04-30T14:43:50.489Z,71.89
2019-04-30T14:46:22.561Z,71.75
2019-04-30T14:48:53.550Z,71.69
2019-04-30T14:51:22.453Z,70.69
2019-04-30T14:53:52.270Z,71.24
2019-04-30T14:56:24.817Z,71.92
2019-04-30T14:59:00.144Z,73.66
2019-04-30T15:01:32.615Z,72.94
2019-04-30T15:04:00.788Z,73.15
2019-04-30T15:06:29.279Z,71.43
2019-04-30T15:08:59.133Z,70.99
2019-04-30T15:11:28.874Z,71.95
2019-04-30T15:13:59.062Z,70.64
2019-04-30T15:16:26.981Z,69.49
2019-04-30T15:18:55.165Z,70.03
2019-04-30T15:21:23.658Z,68.79
2019-04-30T15:23:58.599Z,66.44
2019-04-30T15:26:25.126Z,67.86
2019-04-30T15:28:53.600Z,64.19
2019-04-30T15:31:22.081Z,61.96
2019-04-30T15:34:02.268Z,62.87
2019-04-30T15:36:22.109Z,65.48
2019-04-30T15:38:57.679Z,65.39
2019-04-30T15:41:26.146Z,64.98
2019-04-30T15:43:54.729Z,66.19
2019-04-30T15:46:23.626Z,62.99
2019-04-30T15:48:51.814Z,67.56
2019-04-30T15:51:19.994Z,67.35
2019-04-30T15:53:48.585Z,68.49
2019-04-30T15:56:16.761Z,64.62
2019-04-30T15:58:49.318Z,67.37
2019-04-30T16:01:19.176Z,66.72
2019-04-30T16:03:54.443Z,66.58
2019-04-30T16:06:22.945Z,66.69
2019-04-30T16:08:58.402Z,67.90
2019-04-30T16:11:37.258Z,68.85
2019-04-30T16:14:22.797Z,69.75
2019-04-30T16:16:52.617Z,77.83
2019-04-30T16:19:20.807Z,78.91
2019-04-30T16:21:48.985Z,76.06
2019-04-30T16:24:18.729Z,73.41
2019-04-30T16:26:50.611Z,69.56
2019-04-30T16:29:16.965Z,68.06
2019-04-30T16:31:45.444Z,68.47
2019-04-30T16:34:13.929Z,67.64
2019-04-30T16:36:42.414Z,69.66
2019-04-30T16:39:10.621Z,69.88
2019-04-30T16:41:40.747Z,71.78
2019-04-30T16:44:09.184Z,71.70
2019-04-30T16:46:39.481Z,71.64
2019-04-30T16:49:09.985Z,72.35
2019-04-30T16:51:38.594Z,72.46
2019-04-30T16:54:08.646Z,72.50
2019-04-30T16:56:38.656Z,73.52
2019-04-30T16:59:08.685Z,74.07
2019-04-30T17:01:36.860Z,74.16
2019-04-30T17:04:25.624Z,74.93
2019-04-30T17:06:55.759Z,75.31
2019-04-30T17:09:31.038Z,75.91
2019-04-30T17:12:00.857Z,76.38
2019-04-30T17:14:30.805Z,77.04
2019-04-30T17:16:59.823Z,77.40
2019-04-30T17:19:29.231Z,77.66
2019-04-30T17:21:57.518Z,77.37
2019-04-30T17:24:25.955Z,77.48
2019-04-30T17:26:54.446Z,77.95
2019-04-30T17:29:22.639Z,78.03
2019-04-30T17:31:50.816Z,78.12
2019-04-30T17:34:19.274Z,78.34
2019-04-30T17:36:49.449Z,78.30
2019-04-30T17:39:19.009Z,78.13
2019-04-30T17:41:47.553Z,78.83
2019-04-30T17:44:15.735Z,76.91
2019-04-30T17:46:43.907Z,77.38
2019-04-30T17:49:12.093Z,78.39
2019-04-30T17:51:40.276Z,78.43
2019-04-30T17:54:13.475Z,77.89
2019-04-30T17:56:42.601Z,77.53
2019-04-30T17:59:11.264Z,77.15
2019-04-30T18:01:41.095Z,76.37
2019-04-30T18:04:09.267Z,77.06
2019-04-30T18:06:37.453Z,77.37
2019-04-30T18:09:10.745Z,77.30
2019-04-30T18:11:39.619Z,77.47
2019-04-30T18:14:08.824Z,79.99
2019-04-30T18:16:38.687Z,80.69
2019-04-30T18:19:11.599Z,80.49
2019-04-30T18:21:48.578Z,80.54
2019-04-30T18:24:19.529Z,81.06
2019-04-30T18:27:01.628Z,81.02
2019-04-30T18:29:29.798Z,81.02
2019-04-30T18:31:59.843Z,81.31
2019-04-30T18:34:29.204Z,81.69
2019-04-30T18:36:59.327Z,82.76
2019-04-30T18:39:28.885Z,82.54
2019-04-30T18:41:57.288Z,83.10
2019-04-30T18:44:25.461Z,83.22
2019-04-30T18:46:53.987Z,82.72
2019-04-30T18:49:22.174Z,82.89
2019-04-30T18:51:50.355Z,83.49
2019-04-30T18:54:20.896Z,83.79
2019-04-30T18:56:49.005Z,83.80
2019-04-30T18:59:19.509Z,84.16
2019-04-30T19:01:47.437Z,84.32
2019-04-30T19:04:15.615Z,84.36
2019-04-30T19:06:43.801Z,84.29
2019-04-30T19:09:19.674Z,83.84
2019-04-30T19:11:52.817Z,83.95
2019-04-30T19:14:25.478Z,84.20
2019-04-30T19:17:01.038Z,84.48
2019-04-30T19:19:43.367Z,84.65
2019-04-30T19:22:11.552Z,84.99
2019-04-30T19:24:52.714Z,85.05
2019-04-30T19:27:09.641Z,85.63
2019-04-30T19:29:38.125Z,85.25
2019-04-30T19:32:06.322Z,85.21
2019-04-30T19:34:34.875Z,85.33
2019-04-30T19:37:03.482Z,85.27
2019-04-30T19:39:32.497Z,85.14
2019-04-30T19:42:01.018Z,85.27
2019-04-30T19:44:29.834Z,85.22
2019-04-30T19:46:58.591Z,85.30
2019-04-30T19:49:26.801Z,85.74
2019-04-30T19:52:07.597Z,85.96
2019-04-30T19:54:24.886Z,85.81
2019-04-30T19:56:53.292Z,85.89
2019-04-30T19:59:21.840Z,85.92
2019-04-30T20:01:50.195Z,86.34
2019-04-30T20:04:18.648Z,86.56
2019-04-30T20:06:48.763Z,86.82
2019-04-30T20:09:19.278Z,86.76
2019-04-30T20:11:49.307Z,86.92
2019-04-30T20:14:18.677Z,87.39
2019-04-30T20:16:48.667Z,87.79
2019-04-30T20:19:16.946Z,88.15
2019-04-30T20:21:50.740Z,88.32
2019-04-30T20:24:15.368Z,88.20
2019-04-30T20:26:43.544Z,88.59
2019-04-30T20:29:12.020Z,88.34
2019-04-30T20:31:40.499Z,88.26
2019-04-30T20:34:09.254Z,87.75
2019-04-30T20:36:38.885Z,88.18
2019-04-30T20:39:09.109Z,88.38
2019-04-30T20:41:37.281Z,88.70
2019-04-30T20:44:05.464Z,88.06
2019-04-30T20:46:35.325Z,88.48
2019-04-30T20:49:03.867Z,88.37
2019-04-30T20:51:32.040Z,88.49
2019-04-30T20:54:00.220Z,88.87
2019-04-30T20:56:29.170Z,88.93
2019-04-30T20:59:02.347Z,88.97
2019-04-30T21:01:29.419Z,89.20
2019-04-30T21:03:57.342Z,89.29
2019-04-30T21:06:25.752Z,89.54
2019-04-30T21:08:53.941Z,89.02
2019-04-30T21:11:22.459Z,89.13
2019-04-30T21:13:50.936Z,89.15
2019-04-30T21:16:19.421Z,88.94
2019-04-30T21:18:47.897Z,89.29
2019-04-30T21:21:18.610Z,89.36
2019-04-30T21:23:46.813Z,89.68
2019-04-30T21:26:14.993Z,89.45
2019-04-30T21:28:43.177Z,89.77
2019-04-30T21:31:31.104Z,89.93
2019-04-30T21:34:09.704Z,90.23
2019-04-30T21:36:39.555Z,90.16
2019-04-30T21:39:09.051Z,88.91
2019-04-30T21:41:39.448Z,88.77
2019-04-30T21:44:07.233Z,90.10
2019-04-30T21:46:37.102Z,90.68
2019-04-30T21:49:05.636Z,91.05
2019-04-30T21:51:33.811Z,91.70
2019-04-30T21:54:02.005Z,91.61
2019-04-30T21:56:30.458Z,91.14
2019-04-30T21:58:58.935Z,90.83
2019-04-30T22:01:27.107Z,90.71
2019-04-30T22:03:55.590Z,90.52
2019-04-30T22:06:23.769Z,89.87
2019-04-30T22:08:51.952Z,89.64
2019-04-30T22:11:20.121Z,90.57
2019-04-30T22:13:49.416Z,90.73
2019-04-30T22:16:20.072Z,91.51
2019-04-30T22:18:48.020Z,91.50
2019-04-30T22:21:16.205Z,90.86
2019-04-30T22:23:44.377Z,91.09
2019-04-30T22:26:12.698Z,91.32
2019-04-30T22:28:41.248Z,92.11
2019-04-30T22:31:09.536Z,92.33
2019-04-30T22:33:39.206Z,91.98
2019-04-30T22:36:10.924Z,91.80
2019-04-30T22:38:40.810Z,91.90
2019-04-30T22:41:08.995Z,93.18
2019-04-30T22:43:37.167Z,93.21
2019-04-30T22:46:06.994Z,92.93
2019-04-30T22:48:35.434Z,92.92
2019-04-30T22:51:03.622Z,92.85
2019-04-30T22:53:31.797Z,92.98
2019-04-30T22:56:00.268Z,92.94
2019-04-30T22:58:28.748Z,93.13
2019-04-30T23:01:01.530Z,92.87
2019-04-30T23:03:31.361Z,92.96
2019-04-30T23:05:59.529Z,93.86
2019-04-30T23:08:27.700Z,94.07
2019-04-30T23:10:56.177Z,94.09
2019-04-30T23:13:24.351Z,93.86
2019-04-30T23:15:54.450Z,93.94
2019-04-30T23:18:22.624Z,93.92
2019-04-30T23:20:51.178Z,93.89
2019-04-30T23:23:19.353Z,93.91
2019-04-30T23:25:47.540Z,93.82
2019-04-30T23:28:15.710Z,93.64
2019-04-30T23:30:43.919Z,93.46
2019-04-30T23:33:12.408Z,93.50
2019-04-30T23:35:40.591Z,93.62
2019-04-30T23:38:08.767Z,93.71
2019-04-30T23:40:51.094Z,93.67
2019-04-30T23:43:19.751Z,93.72
2019-04-30T23:45:48.094Z,93.87
2019-04-30T23:48:16.273Z,94.17
2019-04-30T23:50:44.445Z,94.38
2019-04-30T23:53:12.629Z,94.53
2019-04-30T23:55:40.803Z,94.53
2019-04-30T23:58:08.985Z,94.44
